sensor_id;sensor_type;location;lat;lon;timestamp;pressure;altitude;pressure_sealevel;temperature;humidity
38780;BME280;29273;49.962;9.768;2023-03-22T00:02:22;99591.38;;;12.08;61.15
38780;BME280;29273;49.962;9.768;2023-03-22T00:04:51;99588.09;;;12.06;61.10
38780;BME280;29273;49.962;9.768;2023-03-22T00:07:17;99588.34;;;12.04;61.18
38780;BME280;29273;49.962;9.768;2023-03-22T00:09:42;99588.56;;;12.02;60.83
38780;BME280;29273;49.962;9.768;2023-03-22T00:12:08;99584.28;;;12.01;61.00
38780;BME280;29273;49.962;9.768;2023-03-22T00:14:33;99581.84;;;12.00;61.05
38780;BME280;29273;49.962;9.768;2023-03-22T00:17:00;99588.41;;;11.97;60.82
38780;BME280;29273;49.962;9.768;2023-03-22T00:19:25;99588.63;;;11.96;60.30
38780;BME280;29273;49.962;9.768;2023-03-22T00:21:53;99590.66;;;11.94;60.68
38780;BME280;29273;49.962;9.768;2023-03-22T00:24:20;99587.59;;;11.90;60.51
38780;BME280;29273;49.962;9.768;2023-03-22T00:26:45;99589.06;;;11.86;60.38
38780;BME280;29273;49.962;9.768;2023-03-22T00:29:12;99583.97;;;11.84;60.46
38780;BME280;29273;49.962;9.768;2023-03-22T00:31:41;99582.97;;;11.79;60.28
38780;BME280;29273;49.962;9.768;2023-03-22T00:34:06;99582.59;;;11.75;60.42
38780;BME280;29273;49.962;9.768;2023-03-22T00:36:32;99587.31;;;11.73;60.31
38780;BME280;29273;49.962;9.768;2023-03-22T00:38:58;99578.97;;;11.70;60.42
38780;BME280;29273;49.962;9.768;2023-03-22T00:41:24;99578.59;;;11.66;60.15
38780;BME280;29273;49.962;9.768;2023-03-22T00:43:50;99582.03;;;11.66;60.55
38780;BME280;29273;49.962;9.768;2023-03-22T00:46:18;99579.00;;;11.63;60.37
38780;BME280;29273;49.962;9.768;2023-03-22T00:48:44;99575.16;;;11.59;60.60
38780;BME280;29273;49.962;9.768;2023-03-22T00:51:10;99574.13;;;11.60;60.66
38780;BME280;29273;49.962;9.768;2023-03-22T00:53:37;99575.34;;;11.57;60.59
38780;BME280;29273;49.962;9.768;2023-03-22T00:56:03;99570.88;;;11.58;60.35
38780;BME280;29273;49.962;9.768;2023-03-22T00:58:36;99570.50;;;11.54;60.60
38780;BME280;29273;49.962;9.768;2023-03-22T01:01:02;99566.22;;;11.53;60.77
38780;BME280;29273;49.962;9.768;2023-03-22T01:03:27;99564.38;;;11.54;60.87
38780;BME280;29273;49.962;9.768;2023-03-22T01:05:53;99552.97;;;11.53;60.73
38780;BME280;29273;49.962;9.768;2023-03-22T01:08:20;99548.66;;;11.52;60.84
38780;BME280;29273;49.962;9.768;2023-03-22T01:10:47;99550.50;;;11.52;60.69
38780;BME280;29273;49.962;9.768;2023-03-22T01:13:13;99544.63;;;11.50;60.57
38780;BME280;29273;49.962;9.768;2023-03-22T01:15:38;99545.63;;;11.48;60.58
38780;BME280;29273;49.962;9.768;2023-03-22T01:18:06;99537.88;;;11.47;60.61
38780;BME280;29273;49.962;9.768;2023-03-22T01:20:32;99537.28;;;11.45;60.34
38780;BME280;29273;49.962;9.768;2023-03-22T01:22:58;99534.84;;;11.43;60.00
38780;BME280;29273;49.962;9.768;2023-03-22T01:25:24;99525.50;;;11.41;60.25
38780;BME280;29273;49.962;9.768;2023-03-22T01:27:49;99521.22;;;11.40;60.04
38780;BME280;29273;49.962;9.768;2023-03-22T01:30:15;99527.75;;;11.37;60.32
38780;BME280;29273;49.962;9.768;2023-03-22T01:32:41;99519.41;;;11.34;60.48
38780;BME280;29273;49.962;9.768;2023-03-22T01:35:07;99523.09;;;11.33;60.56
38780;BME280;29273;49.962;9.768;2023-03-22T01:37:33;99526.78;;;11.32;60.49
38780;BME280;29273;49.962;9.768;2023-03-22T01:39:59;99523.53;;;11.29;60.25
38780;BME280;29273;49.962;9.768;2023-03-22T01:42:26;99533.31;;;11.29;60.02
38780;BME280;29273;49.962;9.768;2023-03-22T01:47:39;99524.16;;;11.25;60.72
38780;BME280;29273;49.962;9.768;2023-03-22T01:50:06;99527.03;;;11.23;60.50
38780;BME280;29273;49.962;9.768;2023-03-22T01:52:33;99520.09;;;11.22;60.36
38780;BME280;29273;49.962;9.768;2023-03-22T01:55:05;99512.13;;;11.22;60.66
38780;BME280;29273;49.962;9.768;2023-03-22T01:57:38;99514.56;;;11.24;60.50
38780;BME280;29273;49.962;9.768;2023-03-22T02:00:12;99504.81;;;11.24;60.77
38780;BME280;29273;49.962;9.768;2023-03-22T02:02:48;99518.66;;;11.26;60.54
38780;BME280;29273;49.962;9.768;2023-03-22T02:05:22;99513.56;;;11.25;60.46
38780;BME280;29273;49.962;9.768;2023-03-22T02:07:50;99507.25;;;11.26;60.61
38780;BME280;29273;49.962;9.768;2023-03-22T02:10:22;99512.72;;;11.31;60.30
38780;BME280;29273;49.962;9.768;2023-03-22T02:13:12;99510.06;;;11.31;60.05
38780;BME280;29273;49.962;9.768;2023-03-22T02:29:55;99494.00;;;11.26;60.50
38780;BME280;29273;49.962;9.768;2023-03-22T02:35:20;99485.88;;;11.21;60.61
38780;BME280;29273;49.962;9.768;2023-03-22T02:40:49;99479.69;;;11.27;60.27
38780;BME280;29273;49.962;9.768;2023-03-22T02:43:54;99485.03;;;11.20;60.21
38780;BME280;29273;49.962;9.768;2023-03-22T02:46:30;99477.88;;;11.27;60.08
38780;BME280;29273;49.962;9.768;2023-03-22T02:49:21;99487.06;;;11.25;60.16
38780;BME280;29273;49.962;9.768;2023-03-22T02:52:13;99487.25;;;11.23;60.03
38780;BME280;29273;49.962;9.768;2023-03-22T02:54:47;99489.53;;;11.20;60.36
38780;BME280;29273;49.962;9.768;2023-03-22T02:57:21;99487.06;;;11.25;60.26
38780;BME280;29273;49.962;9.768;2023-03-22T02:59:51;99486.47;;;11.23;60.30
38780;BME280;29273;49.962;9.768;2023-03-22T03:02:18;99491.38;;;11.19;60.46
38780;BME280;29273;49.962;9.768;2023-03-22T03:04:47;99493.56;;;11.22;60.33
38780;BME280;29273;49.962;9.768;2023-03-22T03:07:18;99491.75;;;11.23;60.34
38780;BME280;29273;49.962;9.768;2023-03-22T03:09:46;99481.19;;;11.16;60.26
38780;BME280;29273;49.962;9.768;2023-03-22T03:12:16;99485.03;;;11.20;60.66
38780;BME280;29273;49.962;9.768;2023-03-22T03:14:43;99486.72;;;11.15;60.46
38780;BME280;29273;49.962;9.768;2023-03-22T03:20:10;99483.03;;;11.16;60.65
38780;BME280;29273;49.962;9.768;2023-03-22T03:23:07;99479.78;;;11.14;60.35
38780;BME280;29273;49.962;9.768;2023-03-22T03:25:58;99481.03;;;11.11;60.59
38780;BME280;29273;49.962;9.768;2023-03-22T03:28:54;99490.38;;;11.14;60.37
38780;BME280;29273;49.962;9.768;2023-03-22T03:34:16;99503.03;;;11.11;60.18
38780;BME280;29273;49.962;9.768;2023-03-22T03:37:05;99500.00;;;11.08;60.13
38780;BME280;29273;49.962;9.768;2023-03-22T03:39:37;99493.66;;;11.09;60.42
38780;BME280;29273;49.962;9.768;2023-03-22T03:42:05;99501.22;;;11.05;60.97
38780;BME280;29273;49.962;9.768;2023-03-22T03:44:37;99497.97;;;11.03;60.85
38780;BME280;29273;49.962;9.768;2023-03-22T03:47:05;99507.34;;;11.06;61.13
38780;BME280;29273;49.962;9.768;2023-03-22T03:49:32;99500.63;;;11.03;61.22
38780;BME280;29273;49.962;9.768;2023-03-22T03:51:58;99498.56;;;11.05;61.04
38780;BME280;29273;49.962;9.768;2023-03-22T03:54:24;99497.56;;;11.06;61.12
38780;BME280;29273;49.962;9.768;2023-03-22T03:56:49;99496.75;;;11.06;61.00
38780;BME280;29273;49.962;9.768;2023-03-22T03:59:16;99488.59;;;11.07;60.82
38780;BME280;29273;49.962;9.768;2023-03-22T04:01:44;99488.59;;;11.07;60.78
38780;BME280;29273;49.962;9.768;2023-03-22T04:04:23;99491.00;;;11.09;60.57
38780;BME280;29273;49.962;9.768;2023-03-22T04:06:58;99486.22;;;10.92;60.77
38780;BME280;29273;49.962;9.768;2023-03-22T04:09:29;99485.13;;;11.07;60.72
38780;BME280;29273;49.962;9.768;2023-03-22T04:12:01;99480.84;;;11.06;60.60
38780;BME280;29273;49.962;9.768;2023-03-22T04:14:27;99482.09;;;11.03;60.69
38780;BME280;29273;49.962;9.768;2023-03-22T04:16:55;99477.59;;;11.04;60.94
38780;BME280;29273;49.962;9.768;2023-03-22T04:19:22;99487.38;;;11.03;60.68
38780;BME280;29273;49.962;9.768;2023-03-22T04:21:48;99483.94;;;11.03;61.08
38780;BME280;29273;49.962;9.768;2023-03-22T04:24:14;99470.69;;;11.03;60.93
38780;BME280;29273;49.962;9.768;2023-03-22T04:26:42;99469.63;;;11.04;60.88
38780;BME280;29273;49.962;9.768;2023-03-22T04:29:19;99462.72;;;11.03;60.46
38780;BME280;29273;49.962;9.768;2023-03-22T04:31:49;99463.53;;;11.03;61.11
38780;BME280;29273;49.962;9.768;2023-03-22T04:34:23;99456.59;;;11.02;60.91
38780;BME280;29273;49.962;9.768;2023-03-22T04:36:58;99448.66;;;11.02;61.11
38780;BME280;29273;49.962;9.768;2023-03-22T04:39:29;99441.53;;;11.03;61.06
38780;BME280;29273;49.962;9.768;2023-03-22T04:42:07;99436.22;;;11.03;60.99
38780;BME280;29273;49.962;9.768;2023-03-22T04:44:33;99437.25;;;11.02;60.85
38780;BME280;29273;49.962;9.768;2023-03-22T04:46:58;99434.81;;;11.00;60.90
38780;BME280;29273;49.962;9.768;2023-03-22T04:49:24;99443.59;;;11.01;60.82
38780;BME280;29273;49.962;9.768;2023-03-22T04:51:52;99444.59;;;11.00;60.73
38780;BME280;29273;49.962;9.768;2023-03-22T04:54:29;99439.50;;;10.98;60.65
38780;BME280;29273;49.962;9.768;2023-03-22T04:56:54;99437.28;;;10.95;60.95
38780;BME280;29273;49.962;9.768;2023-03-22T04:59:22;99436.47;;;10.95;60.96
38780;BME280;29273;49.962;9.768;2023-03-22T05:01:49;99435.06;;;10.92;60.93
38780;BME280;29273;49.962;9.768;2023-03-22T05:04:18;99429.38;;;10.88;60.62
38780;BME280;29273;49.962;9.768;2023-03-22T05:06:46;99426.94;;;10.87;60.72
38780;BME280;29273;49.962;9.768;2023-03-22T05:09:19;99426.34;;;10.85;60.93
38780;BME280;29273;49.962;9.768;2023-03-22T05:11:45;99431.06;;;10.83;61.03
38780;BME280;29273;49.962;9.768;2023-03-22T05:14:27;99429.63;;;10.80;60.96
38780;BME280;29273;49.962;9.768;2023-03-22T05:16:53;99433.91;;;10.81;60.73
38780;BME280;29273;49.962;9.768;2023-03-22T05:19:18;99426.19;;;10.80;60.52
38780;BME280;29273;49.962;9.768;2023-03-22T05:21:47;99430.88;;;10.78;60.37
38780;BME280;29273;49.962;9.768;2023-03-22T05:24:13;99439.03;;;10.76;60.47
38780;BME280;29273;49.962;9.768;2023-03-22T05:26:41;99434.75;;;10.75;60.50
38780;BME280;29273;49.962;9.768;2023-03-22T05:29:09;99439.25;;;10.74;60.72
38780;BME280;29273;49.962;9.768;2023-03-22T05:31:53;99436.22;;;10.71;60.92
38780;BME280;29273;49.962;9.768;2023-03-22T05:34:19;99441.28;;;10.72;60.83
38780;BME280;29273;49.962;9.768;2023-03-22T05:36:46;99442.31;;;10.71;60.96
38780;BME280;29273;49.962;9.768;2023-03-22T05:39:28;99447.81;;;10.70;61.18
38780;BME280;29273;49.962;9.768;2023-03-22T05:41:54;99454.53;;;10.72;61.26
38780;BME280;29273;49.962;9.768;2023-03-22T05:44:20;99454.53;;;10.72;60.98
38780;BME280;29273;49.962;9.768;2023-03-22T05:46:55;99452.47;;;10.74;60.98
38780;BME280;29273;49.962;9.768;2023-03-22T05:49:37;99455.13;;;10.74;61.08
38780;BME280;29273;49.962;9.768;2023-03-22T05:52:03;99456.53;;;10.77;60.98
38780;BME280;29273;49.962;9.768;2023-03-22T05:54:44;99453.09;;;10.77;61.27
38780;BME280;29273;49.962;9.768;2023-03-22T05:57:09;99441.47;;;10.78;60.99
38780;BME280;29273;49.962;9.768;2023-03-22T05:59:35;99435.97;;;10.79;61.02
38780;BME280;29273;49.962;9.768;2023-03-22T06:02:01;99436.78;;;10.80;61.18
38780;BME280;29273;49.962;9.768;2023-03-22T06:04:28;99439.22;;;10.81;61.27
38780;BME280;29273;49.962;9.768;2023-03-22T06:07:10;99440.00;;;10.82;61.34
38780;BME280;29273;49.962;9.768;2023-03-22T06:09:46;99441.66;;;10.83;61.16
38780;BME280;29273;49.962;9.768;2023-03-22T06:12:16;99437.16;;;10.83;60.92
38780;BME280;29273;49.962;9.768;2023-03-22T06:14:47;99442.66;;;10.82;61.05
38780;BME280;29273;49.962;9.768;2023-03-22T06:17:29;99450.59;;;10.82;61.31
38780;BME280;29273;49.962;9.768;2023-03-22T06:19:55;99452.25;;;10.83;61.36
38780;BME280;29273;49.962;9.768;2023-03-22T06:22:21;99452.25;;;10.83;61.18
38780;BME280;29273;49.962;9.768;2023-03-22T06:24:48;99453.03;;;10.83;61.09
38780;BME280;29273;49.962;9.768;2023-03-22T06:27:19;99449.81;;;10.81;61.15
38780;BME280;29273;49.962;9.768;2023-03-22T06:29:46;99457.53;;;10.83;61.25
38780;BME280;29273;49.962;9.768;2023-03-22T06:32:16;99465.28;;;10.84;61.39
38780;BME280;29273;49.962;9.768;2023-03-22T06:34:41;99457.34;;;10.84;61.25
38780;BME280;29273;49.962;9.768;2023-03-22T06:37:08;99460.78;;;10.85;61.57
38780;BME280;29273;49.962;9.768;2023-03-22T06:39:38;99464.81;;;10.87;61.49
38780;BME280;29273;49.962;9.768;2023-03-22T06:42:03;99463.81;;;10.88;61.43
38780;BME280;29273;49.962;9.768;2023-03-22T06:44:29;99463.81;;;10.88;61.33
38780;BME280;29273;49.962;9.768;2023-03-22T06:47:18;99468.09;;;10.89;61.66
38780;BME280;29273;49.962;9.768;2023-03-22T06:49:59;99464.41;;;10.90;61.66
38780;BME280;29273;49.962;9.768;2023-03-22T06:52:38;99470.09;;;10.94;61.95
38780;BME280;29273;49.962;9.768;2023-03-22T06:55:06;99452.97;;;10.97;61.91
38780;BME280;29273;49.962;9.768;2023-03-22T06:57:32;99460.50;;;11.00;62.03
38780;BME280;29273;49.962;9.768;2023-03-22T06:59:58;99460.09;;;11.03;61.97
38780;BME280;29273;49.962;9.768;2023-03-22T07:02:23;99459.88;;;11.04;61.87
38780;BME280;29273;49.962;9.768;2023-03-22T07:05:16;99457.00;;;11.06;62.02
38780;BME280;29273;49.962;9.768;2023-03-22T07:07:42;99462.69;;;11.09;62.01
38780;BME280;29273;49.962;9.768;2023-03-22T07:10:08;99450.84;;;11.12;61.97
38780;BME280;29273;49.962;9.768;2023-03-22T07:12:34;99453.88;;;11.16;61.99
38780;BME280;29273;49.962;9.768;2023-03-22T07:15:05;99457.34;;;11.16;62.19
38780;BME280;29273;49.962;9.768;2023-03-22T07:17:42;99448.34;;;11.17;62.10
38780;BME280;29273;49.962;9.768;2023-03-22T07:20:08;99447.34;;;11.18;62.25
38780;BME280;29273;49.962;9.768;2023-03-22T07:22:34;99447.13;;;11.20;62.37
38780;BME280;29273;49.962;9.768;2023-03-22T07:24:59;99455.88;;;11.20;62.15
38780;BME280;29273;49.962;9.768;2023-03-22T07:27:27;99449.78;;;11.20;62.39
38780;BME280;29273;49.962;9.768;2023-03-22T07:29:53;99454.06;;;11.21;62.67
38780;BME280;29273;49.962;9.768;2023-03-22T07:32:19;99441.03;;;11.19;62.53
38780;BME280;29273;49.962;9.768;2023-03-22T07:34:56;99450.38;;;11.22;62.55
38780;BME280;29273;49.962;9.768;2023-03-22T07:37:21;99449.56;;;11.21;62.90
38780;BME280;29273;49.962;9.768;2023-03-22T07:39:47;99449.56;;;11.21;62.61
38780;BME280;29273;49.962;9.768;2023-03-22T07:42:12;99456.72;;;11.21;62.29
38780;BME280;29273;49.962;9.768;2023-03-22T07:44:41;99464.88;;;11.19;62.16
38780;BME280;29273;49.962;9.768;2023-03-22T07:47:17;99456.31;;;11.17;62.41
38780;BME280;29273;49.962;9.768;2023-03-22T07:50:02;99454.69;;;11.16;62.48
38780;BME280;29273;49.962;9.768;2023-03-22T07:52:30;99451.22;;;11.16;62.51
38780;BME280;29273;49.962;9.768;2023-03-22T07:54:57;99451.22;;;11.16;62.55
38780;BME280;29273;49.962;9.768;2023-03-22T07:57:22;99455.50;;;11.17;62.92
38780;BME280;29273;49.962;9.768;2023-03-22T07:59:54;99451.00;;;11.17;63.03
38780;BME280;29273;49.962;9.768;2023-03-22T08:02:24;99443.66;;;11.19;62.99
38780;BME280;29273;49.962;9.768;2023-03-22T08:04:52;99440.81;;;11.21;62.88
38780;BME280;29273;49.962;9.768;2023-03-22T08:07:39;99433.06;;;11.19;63.52
38780;BME280;29273;49.962;9.768;2023-03-22T08:10:05;99438.16;;;11.21;63.85
38780;BME280;29273;49.962;9.768;2023-03-22T08:12:33;99433.44;;;11.23;64.02
38780;BME280;29273;49.962;9.768;2023-03-22T08:15:09;99435.88;;;11.24;64.21
38780;BME280;29273;49.962;9.768;2023-03-22T08:17:35;99435.47;;;11.27;64.76
38780;BME280;29273;49.962;9.768;2023-03-22T08:20:02;99436.44;;;11.33;64.94
38780;BME280;29273;49.962;9.768;2023-03-22T08:22:44;99431.72;;;11.35;65.05
38780;BME280;29273;49.962;9.768;2023-03-22T08:25:15;99429.84;;;11.42;65.28
38780;BME280;29273;49.962;9.768;2023-03-22T08:27:41;99419.19;;;11.49;65.60
38780;BME280;29273;49.962;9.768;2023-03-22T08:30:08;99418.28;;;11.55;65.53
38780;BME280;29273;49.962;9.768;2023-03-22T08:32:34;99414.13;;;11.66;65.61
38780;BME280;29273;49.962;9.768;2023-03-22T08:35:00;99420.53;;;11.77;65.47
38780;BME280;29273;49.962;9.768;2023-03-22T08:37:26;99421.06;;;11.85;64.59
38780;BME280;29273;49.962;9.768;2023-03-22T08:39:52;99418.31;;;11.99;64.32
38780;BME280;29273;49.962;9.768;2023-03-22T08:42:21;99421.66;;;12.13;64.38
38780;BME280;29273;49.962;9.768;2023-03-22T08:44:47;99419.88;;;12.25;64.44
38780;BME280;29273;49.962;9.768;2023-03-22T08:47:13;99427.91;;;12.37;64.12
38780;BME280;29273;49.962;9.768;2023-03-22T08:49:40;99418.16;;;12.49;63.51
38780;BME280;29273;49.962;9.768;2023-03-22T08:52:13;99421.31;;;12.58;62.16
38780;BME280;29273;49.962;9.768;2023-03-22T08:54:52;99411.53;;;12.70;61.55
38780;BME280;29273;49.962;9.768;2023-03-22T08:57:36;99411.97;;;12.86;61.72
38780;BME280;29273;49.962;9.768;2023-03-22T09:00:20;99410.94;;;12.99;61.74
38780;BME280;29273;49.962;9.768;2023-03-22T09:02:58;99410.16;;;13.10;60.86
38780;BME280;29273;49.962;9.768;2023-03-22T09:05:24;99401.19;;;13.23;61.08
38780;BME280;29273;49.962;9.768;2023-03-22T09:07:51;99404.13;;;13.33;61.00
38780;BME280;29273;49.962;9.768;2023-03-22T09:10:27;99398.25;;;13.43;60.68
38780;BME280;29273;49.962;9.768;2023-03-22T09:12:52;99399.88;;;13.56;60.87
38780;BME280;29273;49.962;9.768;2023-03-22T09:15:18;99403.00;;;13.64;60.04
38780;BME280;29273;49.962;9.768;2023-03-22T09:17:50;99395.00;;;13.76;60.06
38780;BME280;29273;49.962;9.768;2023-03-22T09:20:15;99395.22;;;13.86;59.89
38780;BME280;29273;49.962;9.768;2023-03-22T09:22:44;99382.94;;;13.97;59.49
38780;BME280;29273;49.962;9.768;2023-03-22T09:25:13;99387.66;;;14.07;58.96
38780;BME280;29273;49.962;9.768;2023-03-22T09:27:40;99389.72;;;14.17;59.30
38780;BME280;29273;49.962;9.768;2023-03-22T09:30:06;99378.94;;;14.23;58.69
38780;BME280;29273;49.962;9.768;2023-03-22T09:32:32;99390.84;;;14.33;58.42
38780;BME280;29273;49.962;9.768;2023-03-22T09:35:00;99381.09;;;14.38;59.06
38780;BME280;29273;49.962;9.768;2023-03-22T09:37:34;99375.63;;;14.45;57.93
38780;BME280;29273;49.962;9.768;2023-03-22T09:40:00;99378.63;;;14.49;56.86
38780;BME280;29273;49.962;9.768;2023-03-22T09:42:33;99383.22;;;14.65;59.73
38780;BME280;29273;49.962;9.768;2023-03-22T09:45:05;99371.03;;;14.69;58.26
38780;BME280;29273;49.962;9.768;2023-03-22T09:47:34;99374.91;;;14.78;58.53
38780;BME280;29273;49.962;9.768;2023-03-22T09:50:06;99372.69;;;14.87;57.80
38780;BME280;29273;49.962;9.768;2023-03-22T09:52:32;99363.63;;;14.88;56.46
38780;BME280;29273;49.962;9.768;2023-03-22T09:54:58;99370.44;;;14.96;55.95
38780;BME280;29273;49.962;9.768;2023-03-22T09:57:34;99371.41;;;15.07;55.15
38780;BME280;29273;49.962;9.768;2023-03-22T10:00:11;99362.75;;;15.16;57.48
38780;BME280;29273;49.962;9.768;2023-03-22T10:11:40;99366.50;;;15.32;58.02
38780;BME280;29273;49.962;9.768;2023-03-22T10:16:51;99359.03;;;15.34;55.37
38780;BME280;29273;49.962;9.768;2023-03-22T10:19:23;99356.94;;;15.36;55.54
38780;BME280;29273;49.962;9.768;2023-03-22T10:21:52;99353.72;;;15.34;54.50
38780;BME280;29273;49.962;9.768;2023-03-22T10:24:28;99354.81;;;15.39;55.63
38780;BME280;29273;49.962;9.768;2023-03-22T10:26:54;99350.72;;;15.31;52.76
38780;BME280;29273;49.962;9.768;2023-03-22T10:29:40;99346.19;;;15.31;54.42
38780;BME280;29273;49.962;9.768;2023-03-22T10:32:17;99343.28;;;15.33;51.55
38780;BME280;29273;49.962;9.768;2023-03-22T10:34:44;99344.06;;;15.33;51.91
38780;BME280;29273;49.962;9.768;2023-03-22T10:37:17;99339.72;;;15.44;54.33
38780;BME280;29273;49.962;9.768;2023-03-22T10:39:47;99341.66;;;15.49;54.05
38780;BME280;29273;49.962;9.768;2023-03-22T10:42:21;99349.78;;;15.59;54.84
38780;BME280;29273;49.962;9.768;2023-03-22T10:44:54;99337.63;;;15.68;54.56
38780;BME280;29273;49.962;9.768;2023-03-22T10:47:29;99328.19;;;15.78;54.30
38780;BME280;29273;49.962;9.768;2023-03-22T10:49:57;99331.47;;;15.85;51.72
38780;BME280;29273;49.962;9.768;2023-03-22T10:52:45;99316.94;;;15.98;53.33
38780;BME280;29273;49.962;9.768;2023-03-22T10:55:14;99298.56;;;16.01;46.81
38780;BME280;29273;49.962;9.768;2023-03-22T10:57:47;99331.06;;;16.20;51.30
38780;BME280;29273;49.962;9.768;2023-03-22T11:00:15;99331.97;;;16.26;49.22
38780;BME280;29273;49.962;9.768;2023-03-22T11:02:52;99326.97;;;16.35;51.23
38780;BME280;29273;49.962;9.768;2023-03-22T11:05:25;99318.19;;;16.39;50.38
38780;BME280;29273;49.962;9.768;2023-03-22T11:07:52;99311.81;;;16.40;48.76
38780;BME280;29273;49.962;9.768;2023-03-22T11:10:38;99306.97;;;16.37;46.16
38780;BME280;29273;49.962;9.768;2023-03-22T11:15:34;99299.13;;;16.58;49.61
38780;BME280;29273;49.962;9.768;2023-03-22T11:18:10;99305.91;;;16.65;50.69
38780;BME280;29273;49.962;9.768;2023-03-22T11:20:50;99299.50;;;16.72;50.72
38780;BME280;29273;49.962;9.768;2023-03-22T11:23:18;99304.59;;;16.73;48.54
38780;BME280;29273;49.962;9.768;2023-03-22T11:25:46;99295.28;;;16.76;46.90
38780;BME280;29273;49.962;9.768;2023-03-22T11:28:27;99302.84;;;16.84;47.84
38780;BME280;29273;49.962;9.768;2023-03-22T11:31:22;99290.53;;;16.83;51.01
38780;BME280;29273;49.962;9.768;2023-03-22T11:33:58;99285.53;;;16.92;49.40
38780;BME280;29273;49.962;9.768;2023-03-22T11:36:24;99280.72;;;16.89;46.54
38780;BME280;29273;49.962;9.768;2023-03-22T11:38:58;99285.06;;;17.00;51.78
38780;BME280;29273;49.962;9.768;2023-03-22T11:41:26;99285.06;;;17.00;48.09
38780;BME280;29273;49.962;9.768;2023-03-22T11:43:54;99284.28;;;17.05;47.38
38780;BME280;29273;49.962;9.768;2023-03-22T11:46:21;99290.16;;;17.01;43.25
38780;BME280;29273;49.962;9.768;2023-03-22T11:48:49;99281.94;;;17.13;47.28
38780;BME280;29273;49.962;9.768;2023-03-22T11:51:24;99292.66;;;17.18;47.82
38780;BME280;29273;49.962;9.768;2023-03-22T11:53:54;99287.09;;;17.25;48.66
38780;BME280;29273;49.962;9.768;2023-03-22T11:56:27;99278.03;;;17.31;48.61
38780;BME280;29273;49.962;9.768;2023-03-22T11:58:56;99266.81;;;17.34;47.13
38780;BME280;29273;49.962;9.768;2023-03-22T12:01:38;99264.16;;;17.39;48.71
38780;BME280;29273;49.962;9.768;2023-03-22T12:04:08;99265.81;;;17.46;47.24
38780;BME280;29273;49.962;9.768;2023-03-22T12:06:38;99264.47;;;17.48;46.49
38780;BME280;29273;49.962;9.768;2023-03-22T12:09:11;99254.34;;;17.50;45.35
38780;BME280;29273;49.962;9.768;2023-03-22T12:11:46;99254.09;;;17.57;45.67
38780;BME280;29273;49.962;9.768;2023-03-22T12:14:18;99261.88;;;17.59;45.57
38780;BME280;29273;49.962;9.768;2023-03-22T12:16:51;99250.09;;;17.65;47.92
38780;BME280;29273;49.962;9.768;2023-03-22T12:19:41;99238.31;;;17.66;44.65
38780;BME280;29273;49.962;9.768;2023-03-22T12:22:15;99245.56;;;17.70;47.13
38780;BME280;29273;49.962;9.768;2023-03-22T12:24:41;99250.03;;;17.49;48.90
38780;BME280;29273;49.962;9.768;2023-03-22T12:27:14;99243.19;;;17.74;47.54
38780;BME280;29273;49.962;9.768;2023-03-22T12:29:45;99238.34;;;17.76;46.46
38780;BME280;29273;49.962;9.768;2023-03-22T12:32:18;99233.81;;;17.82;46.43
38780;BME280;29273;49.962;9.768;2023-03-22T12:34:48;99240.78;;;17.83;45.21
38780;BME280;29273;49.962;9.768;2023-03-22T12:37:20;99241.88;;;17.87;45.52
38780;BME280;29273;49.962;9.768;2023-03-22T12:39:50;99240.22;;;17.65;46.76
38780;BME280;29273;49.962;9.768;2023-03-22T12:42:28;99229.84;;;17.89;46.65
38780;BME280;29273;49.962;9.768;2023-03-22T12:45:00;99226.13;;;17.90;43.79
38780;BME280;29273;49.962;9.768;2023-03-22T12:47:39;99227.97;;;17.95;44.91
38780;BME280;29273;49.962;9.768;2023-03-22T12:50:13;99225.88;;;18.02;45.58
38780;BME280;29273;49.962;9.768;2023-03-22T12:52:44;99226.66;;;18.03;45.54
38780;BME280;29273;49.962;9.768;2023-03-22T12:55:29;99223.47;;;18.06;46.18
38780;BME280;29273;49.962;9.768;2023-03-22T12:57:56;99214.34;;;18.02;41.81
38780;BME280;29273;49.962;9.768;2023-03-22T13:00:49;99211.97;;;18.16;43.28
38780;BME280;29273;49.962;9.768;2023-03-22T13:05:47;99212.75;;;18.26;44.07
38780;BME280;29273;49.962;9.768;2023-03-22T13:08:19;99205.56;;;18.37;46.58
38780;BME280;29273;49.962;9.768;2023-03-22T13:11:00;99207.44;;;18.42;45.13
38780;BME280;29273;49.962;9.768;2023-03-22T13:26:19;99202.59;;;18.54;40.52
38780;BME280;29273;49.962;9.768;2023-03-22T13:28:55;99196.97;;;18.61;43.45
38780;BME280;29273;49.962;9.768;2023-03-22T13:31:35;99195.06;;;18.61;43.59
38780;BME280;29273;49.962;9.768;2023-03-22T13:34:01;99198.84;;;18.55;40.20
38780;BME280;29273;49.962;9.768;2023-03-22T13:36:29;99196.97;;;18.56;40.43
38780;BME280;29273;49.962;9.768;2023-03-22T13:39:00;99196.97;;;18.61;41.11
38780;BME280;29273;49.962;9.768;2023-03-22T13:41:32;99188.13;;;18.55;40.25
38780;BME280;29273;49.962;9.768;2023-03-22T13:44:00;99186.78;;;18.58;40.54
38780;BME280;29273;49.962;9.768;2023-03-22T13:46:42;99182.75;;;18.60;41.57
38780;BME280;29273;49.962;9.768;2023-03-22T13:52:00;99182.75;;;18.55;40.01
38780;BME280;29273;49.962;9.768;2023-03-22T13:54:37;99170.69;;;18.58;40.98
38780;BME280;29273;49.962;9.768;2023-03-22T13:57:15;99172.81;;;18.61;42.82
38780;BME280;29273;49.962;9.768;2023-03-22T14:00:00;99159.44;;;18.56;40.28
38780;BME280;29273;49.962;9.768;2023-03-22T14:02:33;99165.03;;;18.59;42.34
38780;BME280;29273;49.962;9.768;2023-03-22T14:07:46;99162.91;;;18.61;42.72
38780;BME280;29273;49.962;9.768;2023-03-22T14:10:19;99162.09;;;18.66;42.93
38780;BME280;29273;49.962;9.768;2023-03-22T14:12:55;99163.13;;;18.70;43.21
38780;BME280;29273;49.962;9.768;2023-03-22T14:15:25;99158.59;;;18.71;42.48
38780;BME280;29273;49.962;9.768;2023-03-22T14:18:05;99159.13;;;18.78;42.25
38780;BME280;29273;49.962;9.768;2023-03-22T14:20:37;99154.56;;;18.83;43.52
38780;BME280;29273;49.962;9.768;2023-03-22T14:25:39;99135.78;;;18.89;41.95
38780;BME280;29273;49.962;9.768;2023-03-22T14:28:06;99138.72;;;18.92;39.53